Terminal Aerodrome Forecast
Issued by NWS

Home | Current Version | Previous Version | Graphics & Text | Print | Product List | Glossary On
Versions: 1 2 3 4 5 6 7 8 9 10 11 12 13 14
000
FTUS43 KBIS 061507 AAA
TAFMOT
TAF AMD
KMOT 061507Z 0615/0712 15012KT P6SM SCT015 BKN030
      TEMPO 0615/0618 5SM -SHRA OVC010
     FM061800 14010KT 4SM SHRA BR SCT008 OVC025
     FM070700 34010KT P6SM VCSH OVC030=

USA.gov is the U.S. government's official web portal to all federal, state and local government web resources and services.